Time;durP1;ratioP1;P1;durP2;ratioP2;P2;SDS_P1;SDS_P2;PMS_P1;PMS_P2;Temp;Humidity;BMP_temperature;BMP_pressure;BME280_temperature;BME280_humidity;BME280_pressure;Samples;Min_cycle;Max_cycle;Signal;HPM_P1;HPM_P2
2024/04/20 00:02:08;;;;;;;1.55;0.95;;;;;;;;;;5358655;26;20015;-73
2024/04/20 00:04:34;;;;;;;0.77;0.75;;;;;;;;;;5350616;26;20038;-73
2024/04/20 00:07:00;;;;;;;0.40;0.40;;;;;;;;;;5365076;26;20038;-73
2024/04/20 00:09:26;;;;;;;0.65;0.50;;;;;;;;;;5357112;26;20011;-73
2024/04/20 00:11:52;;;;;;;0.77;0.52;;;;;;;;;;5364711;26;20082;-73
2024/04/20 00:14:18;;;;;;;0.88;0.50;;;;;;;;;;5362384;26;20387;-73
2024/04/20 00:16:44;;;;;;;0.77;0.40;;;;;;;;;;5356614;26;20074;-72
2024/04/20 00:19:10;;;;;;;1.15;0.93;;;;;;;;;;5366191;26;20144;-73
2024/04/20 00:21:35;;;;;;;0.80;0.55;;;;;;;;;;5364855;26;20353;-72
2024/04/20 00:24:02;;;;;;;0.70;0.50;;;;;;;;;;5369709;26;20079;-73
2024/04/20 00:26:28;;;;;;;0.73;0.60;;;;;;;;;;5351493;26;20402;-73
2024/04/20 00:28:54;;;;;;;0.88;0.77;;;;;;;;;;5341967;26;20015;-73
2024/04/20 00:31:20;;;;;;;0.98;0.75;;;;;;;;;;5350148;26;20011;-73
2024/04/20 00:33:46;;;;;;;0.75;0.60;;;;;;;;;;5353694;26;20337;-73
2024/04/20 00:36:11;;;;;;;0.93;0.70;;;;;;;;;;5358643;26;20000;-73
2024/04/20 00:38:37;;;;;;;1.63;0.93;;;;;;;;;;5355720;26;20040;-73
2024/04/20 00:41:04;;;;;;;1.90;1.10;;;;;;;;;;5354454;26;20093;-73
2024/04/20 00:43:30;;;;;;;1.60;0.93;;;;;;;;;;5347302;26;20001;-73
2024/04/20 00:45:57;;;;;;;1.45;1.00;;;;;;;;;;5355962;26;19993;-73
2024/04/20 00:48:24;;;;;;;1.85;1.08;;;;;;;;;;5357208;26;20046;-73
2024/04/20 00:50:50;;;;;;;1.70;0.82;;;;;;;;;;5357371;26;20001;-73
2024/04/20 00:53:17;;;;;;;1.80;0.93;;;;;;;;;;5358366;26;20110;-74
2024/04/20 00:55:43;;;;;;;1.33;0.75;;;;;;;;;;5364220;26;20317;-73
2024/04/20 00:58:09;;;;;;;2.08;1.08;;;;;;;;;;5362161;26;19996;-73
2024/04/20 01:00:36;;;;;;;1.40;0.90;;;;;;;;;;5363354;26;20041;-73
2024/04/20 01:03:02;;;;;;;2.35;1.10;;;;;;;;;;5363416;26;20001;-73
2024/04/20 01:05:29;;;;;;;1.20;0.70;;;;;;;;;;5363868;26;20011;-73
2024/04/20 01:07:55;;;;;;;1.45;0.88;;;;;;;;;;5366738;26;20000;-73
2024/04/20 01:10:21;;;;;;;3.75;1.15;;;;;;;;;;5358122;26;20004;-73
2024/04/20 01:12:47;;;;;;;1.95;1.27;;;;;;;;;;5365223;26;20280;-73
2024/04/20 01:15:13;;;;;;;1.73;0.88;;;;;;;;;;5365878;26;20018;-73
2024/04/20 01:17:38;;;;;;;2.40;1.02;;;;;;;;;;5371096;26;20391;-73
2024/04/20 01:20:09;;;;;;;1.08;0.73;;;;;;;;;;5369040;26;20078;-73
2024/04/20 01:22:35;;;;;;;0.70;0.68;;;;;;;;;;5370081;26;20000;-73
2024/04/20 01:25:01;;;;;;;1.00;0.70;;;;;;;;;;5357691;26;20015;-73
2024/04/20 01:27:27;;;;;;;1.88;0.80;;;;;;;;;;5365524;26;20049;-73
2024/04/20 01:29:53;;;;;;;2.40;1.30;;;;;;;;;;5366642;26;20015;-73
2024/04/20 01:32:19;;;;;;;0.63;0.63;;;;;;;;;;5357289;26;20479;-73
2024/04/20 01:34:45;;;;;;;1.83;0.90;;;;;;;;;;5359249;26;20019;-73
2024/04/20 01:37:11;;;;;;;0.93;0.60;;;;;;;;;;5365589;26;20000;-73
2024/04/20 01:39:37;;;;;;;1.73;0.68;;;;;;;;;;5356897;26;20408;-73
2024/04/20 01:42:03;;;;;;;2.25;1.08;;;;;;;;;;5346614;26;20039;-73
2024/04/20 01:44:28;;;;;;;1.38;1.00;;;;;;;;;;5352516;26;20012;-74
2024/04/20 01:46:54;;;;;;;1.75;0.98;;;;;;;;;;5364782;26;20012;-73
2024/04/20 01:49:20;;;;;;;1.95;0.90;;;;;;;;;;5357475;26;20070;-73
2024/04/20 01:51:46;;;;;;;1.15;0.70;;;;;;;;;;5362589;26;19996;-73
2024/04/20 01:54:12;;;;;;;2.28;0.98;;;;;;;;;;5348803;26;20400;-73
2024/04/20 01:56:38;;;;;;;1.27;0.80;;;;;;;;;;5361504;26;19996;-73
2024/04/20 01:59:04;;;;;;;2.10;0.90;;;;;;;;;;5354421;26;20101;-73
2024/04/20 02:01:32;;;;;;;1.88;1.25;;;;;;;;;;5357234;26;20025;-73
2024/04/20 02:03:58;;;;;;;1.60;0.85;;;;;;;;;;5349923;26;20005;-73
2024/04/20 02:06:24;;;;;;;1.23;0.80;;;;;;;;;;5368890;26;20049;-73
2024/04/20 02:08:50;;;;;;;1.63;0.90;;;;;;;;;;5358526;26;20135;-73
2024/04/20 02:11:16;;;;;;;1.92;0.93;;;;;;;;;;5355277;26;19996;-73
2024/04/20 02:13:42;;;;;;;1.27;0.77;;;;;;;;;;5365944;26;21195;-73
2024/04/20 02:16:08;;;;;;;1.20;0.70;;;;;;;;;;5361137;26;20034;-73
2024/04/20 02:18:34;;;;;;;2.92;1.08;;;;;;;;;;5362951;26;20142;-73
2024/04/20 02:21:00;;;;;;;1.42;0.80;;;;;;;;;;5365016;26;20023;-73
2024/04/20 02:23:26;;;;;;;1.13;0.85;;;;;;;;;;5356286;26;20437;-73
2024/04/20 02:25:51;;;;;;;1.30;0.90;;;;;;;;;;5363178;26;20000;-73
2024/04/20 02:28:17;;;;;;;1.00;0.60;;;;;;;;;;5361370;26;20297;-73
2024/04/20 02:30:43;;;;;;;1.95;1.00;;;;;;;;;;5365670;26;20430;-73
2024/04/20 02:33:09;;;;;;;1.13;0.80;;;;;;;;;;5370900;26;20429;-73
2024/04/20 02:35:39;;;;;;;1.10;0.65;;;;;;;;;;5363774;26;20079;-73
2024/04/20 02:38:05;;;;;;;1.30;0.75;;;;;;;;;;5363112;26;20000;-72
2024/04/20 02:40:31;;;;;;;1.27;0.75;;;;;;;;;;5367203;26;20355;-73
2024/04/20 02:42:57;;;;;;;1.77;0.52;;;;;;;;;;5364939;26;20005;-72
2024/04/20 02:45:23;;;;;;;1.50;0.77;;;;;;;;;;5368188;26;20000;-73
2024/04/20 02:47:49;;;;;;;1.65;0.90;;;;;;;;;;5359352;26;20012;-73
2024/04/20 02:50:15;;;;;;;1.40;0.88;;;;;;;;;;5368084;26;20112;-73
2024/04/20 02:52:41;;;;;;;1.60;1.02;;;;;;;;;;5359510;26;19996;-73
2024/04/20 02:55:07;;;;;;;0.77;0.70;;;;;;;;;;5355411;26;20000;-73
2024/04/20 02:57:32;;;;;;;2.22;0.85;;;;;;;;;;5366258;26;20047;-73
2024/04/20 02:59:58;;;;;;;1.80;0.70;;;;;;;;;;5364320;26;20104;-73
2024/04/20 03:02:24;;;;;;;1.38;1.00;;;;;;;;;;5363775;26;20385;-73
2024/04/20 03:04:50;;;;;;;1.98;0.85;;;;;;;;;;5359645;26;20028;-73
2024/04/20 03:07:16;;;;;;;1.65;0.90;;;;;;;;;;5365430;26;20063;-73
2024/04/20 03:09:42;;;;;;;2.97;1.10;;;;;;;;;;5357075;26;20004;-73
2024/04/20 03:12:08;;;;;;;1.60;0.82;;;;;;;;;;5369780;26;20092;-73
2024/04/20 03:14:34;;;;;;;1.27;0.68;;;;;;;;;;5370423;26;20000;-73
2024/04/20 03:17:00;;;;;;;0.95;0.88;;;;;;;;;;5367985;26;19997;-73
2024/04/20 03:19:26;;;;;;;1.63;1.10;;;;;;;;;;5365097;26;20039;-74
2024/04/20 03:21:52;;;;;;;1.10;0.88;;;;;;;;;;5360385;26;20001;-73
2024/04/20 03:24:18;;;;;;;0.85;0.60;;;;;;;;;;5367699;26;20405;-73
2024/04/20 03:26:44;;;;;;;1.70;1.02;;;;;;;;;;5369590;26;20058;-73
2024/04/20 03:29:09;;;;;;;0.80;0.75;;;;;;;;;;5357718;26;20174;-73
2024/04/20 03:31:35;;;;;;;1.88;1.10;;;;;;;;;;5368435;26;20127;-73
2024/04/20 03:34:01;;;;;;;2.00;0.90;;;;;;;;;;5369007;26;20019;-72
2024/04/20 03:36:27;;;;;;;1.45;0.82;;;;;;;;;;5361873;26;20030;-73
2024/04/20 03:38:53;;;;;;;2.88;0.82;;;;;;;;;;5370417;26;19996;-73
2024/04/20 03:41:19;;;;;;;0.90;0.80;;;;;;;;;;5362393;26;19997;-73
2024/04/20 03:43:45;;;;;;;1.17;0.68;;;;;;;;;;5364324;26;20101;-75
2024/04/20 03:46:12;;;;;;;1.65;0.90;;;;;;;;;;5370410;26;20015;-73
2024/04/20 03:48:38;;;;;;;1.35;0.90;;;;;;;;;;5363391;26;20009;-73
2024/04/20 03:51:04;;;;;;;1.73;1.10;;;;;;;;;;5370013;26;20074;-73
2024/04/20 03:53:30;;;;;;;1.42;0.63;;;;;;;;;;5357319;26;20055;-74
2024/04/20 03:55:56;;;;;;;1.73;1.30;;;;;;;;;;5359508;26;20168;-73
2024/04/20 03:58:21;;;;;;;0.88;0.50;;;;;;;;;;5367329;26;20083;-73
2024/04/20 04:00:47;;;;;;;1.42;0.80;;;;;;;;;;5365076;26;20012;-73
2024/04/20 04:03:22;;;;;;;1.45;0.80;;;;;;;;;;5369296;26;20113;-73
2024/04/20 04:05:48;;;;;;;1.13;0.85;;;;;;;;;;5357764;26;20073;-75
2024/04/20 04:08:14;;;;;;;0.95;0.82;;;;;;;;;;5371100;26;20007;-73
2024/04/20 04:10:40;;;;;;;1.48;0.85;;;;;;;;;;5364892;26;20012;-73
2024/04/20 04:13:06;;;;;;;2.42;1.17;;;;;;;;;;5365922;26;20393;-74
2024/04/20 04:15:32;;;;;;;1.58;0.85;;;;;;;;;;5362845;26;20091;-73
2024/04/20 04:17:58;;;;;;;1.17;0.65;;;;;;;;;;5368916;26;20376;-73
2024/04/20 04:20:24;;;;;;;1.55;0.90;;;;;;;;;;5363753;26;20030;-74
2024/04/20 04:22:49;;;;;;;1.40;0.90;;;;;;;;;;5366395;26;20081;-74
2024/04/20 04:25:16;;;;;;;1.48;0.90;;;;;;;;;;5368850;26;19999;-74
2024/04/20 04:27:41;;;;;;;0.90;0.68;;;;;;;;;;5367099;26;20146;-74
2024/04/20 04:30:08;;;;;;;2.03;1.10;;;;;;;;;;5365075;26;20001;-71
2024/04/20 04:32:35;;;;;;;1.45;0.82;;;;;;;;;;5367494;26;20012;-71
2024/04/20 04:35:01;;;;;;;2.17;0.98;;;;;;;;;;5363025;26;20004;-71
2024/04/20 04:37:28;;;;;;;1.58;0.80;;;;;;;;;;5370173;26;20011;-70
2024/04/20 04:39:54;;;;;;;0.85;0.75;;;;;;;;;;5367580;26;20039;-71
2024/04/20 04:42:20;;;;;;;1.77;0.80;;;;;;;;;;5365625;26;20150;-71
2024/04/20 04:44:46;;;;;;;0.88;0.70;;;;;;;;;;5366008;26;20420;-71
2024/04/20 04:47:12;;;;;;;1.90;1.20;;;;;;;;;;5363676;26;20007;-71
2024/04/20 04:49:38;;;;;;;2.55;1.20;;;;;;;;;;5358433;26;20082;-71
2024/04/20 04:52:04;;;;;;;2.45;0.90;;;;;;;;;;5361504;26;20457;-71
2024/04/20 04:54:30;;;;;;;2.38;0.90;;;;;;;;;;5366367;26;20046;-72
2024/04/20 04:56:56;;;;;;;1.15;0.95;;;;;;;;;;5359912;26;19996;-71
2024/04/20 04:59:22;;;;;;;1.55;0.82;;;;;;;;;;5367035;26;20003;-71
2024/04/20 05:01:49;;;;;;;3.92;0.82;;;;;;;;;;5359417;26;20439;-71
2024/04/20 05:04:15;;;;;;;1.20;0.70;;;;;;;;;;5352708;26;20008;-72
2024/04/20 05:06:41;;;;;;;1.75;1.00;;;;;;;;;;5355599;26;20017;-71
2024/04/20 05:09:07;;;;;;;1.23;0.90;;;;;;;;;;5371082;26;19996;-71
2024/04/20 05:11:33;;;;;;;0.80;0.80;;;;;;;;;;5359231;26;20000;-71
2024/04/20 05:13:59;;;;;;;1.40;0.90;;;;;;;;;;5365574;26;20505;-72
2024/04/20 05:16:25;;;;;;;1.55;0.77;;;;;;;;;;5365492;26;20000;-72
2024/04/20 05:18:52;;;;;;;1.15;0.80;;;;;;;;;;5366614;26;20020;-72
2024/04/20 05:21:18;;;;;;;3.42;1.50;;;;;;;;;;5362251;26;20379;-72
2024/04/20 05:23:44;;;;;;;1.27;0.82;;;;;;;;;;5360952;26;19997;-72
2024/04/20 05:26:10;;;;;;;1.30;0.90;;;;;;;;;;5354808;26;20016;-72
2024/04/20 05:28:36;;;;;;;1.02;0.63;;;;;;;;;;5362558;26;20034;-71
2024/04/20 05:31:02;;;;;;;2.22;1.05;;;;;;;;;;5366303;26;20096;-71
2024/04/20 05:33:28;;;;;;;2.00;0.90;;;;;;;;;;5365734;26;20004;-71
2024/04/20 05:35:54;;;;;;;3.35;1.00;;;;;;;;;;5361261;26;20324;-71
2024/04/20 05:38:19;;;;;;;1.33;0.90;;;;;;;;;;5354618;26;20370;-71
2024/04/20 05:40:45;;;;;;;1.00;0.80;;;;;;;;;;5351921;26;20034;-71
2024/04/20 05:43:11;;;;;;;2.05;1.15;;;;;;;;;;5359055;26;20000;-71
2024/04/20 05:45:38;;;;;;;2.75;0.90;;;;;;;;;;5360248;26;20000;-71
2024/04/20 05:48:05;;;;;;;1.00;0.75;;;;;;;;;;5357681;26;20017;-71
2024/04/20 05:50:31;;;;;;;1.70;1.13;;;;;;;;;;5363235;26;20057;-71
2024/04/20 05:52:57;;;;;;;1.38;0.98;;;;;;;;;;5358618;26;20079;-71
2024/04/20 05:55:23;;;;;;;1.85;1.00;;;;;;;;;;5366545;26;20000;-71
2024/04/20 05:57:49;;;;;;;1.88;1.08;;;;;;;;;;5360673;26;20484;-71
2024/04/20 06:00:15;;;;;;;1.95;1.02;;;;;;;;;;5364256;26;20019;-71
2024/04/20 06:02:41;;;;;;;1.75;0.85;;;;;;;;;;5362070;26;20051;-71
2024/04/20 06:05:07;;;;;;;2.22;0.93;;;;;;;;;;5356620;26;20044;-71
2024/04/20 06:07:33;;;;;;;0.88;0.70;;;;;;;;;;5363824;26;20080;-70
2024/04/20 06:09:59;;;;;;;1.50;0.88;;;;;;;;;;5359023;26;20019;-71
2024/04/20 06:12:25;;;;;;;1.92;1.20;;;;;;;;;;5352835;26;20102;-71
2024/04/20 06:14:51;;;;;;;1.25;0.77;;;;;;;;;;5356579;26;20015;-71
2024/04/20 06:17:17;;;;;;;2.08;1.10;;;;;;;;;;5358875;26;20099;-71
2024/04/20 06:19:43;;;;;;;1.58;0.82;;;;;;;;;;5365567;26;20000;-71
2024/04/20 06:22:08;;;;;;;1.77;0.70;;;;;;;;;;5363619;26;20017;-71
2024/04/20 06:24:37;;;;;;;1.65;0.77;;;;;;;;;;5363838;26;20151;-70
2024/04/20 06:27:03;;;;;;;1.77;1.23;;;;;;;;;;5352102;26;20001;-71
2024/04/20 06:29:29;;;;;;;2.28;1.38;;;;;;;;;;5360662;26;20125;-71
2024/04/20 06:31:55;;;;;;;1.80;1.08;;;;;;;;;;5363886;26;20307;-71
2024/04/20 06:34:21;;;;;;;1.48;0.90;;;;;;;;;;5361984;26;20020;-72
2024/04/20 06:36:47;;;;;;;1.42;0.85;;;;;;;;;;5356794;26;20031;-71
2024/04/20 06:39:13;;;;;;;1.48;0.90;;;;;;;;;;5361533;26;20004;-71
2024/04/20 06:41:40;;;;;;;3.35;1.00;;;;;;;;;;5366006;26;20027;-71
2024/04/20 06:44:06;;;;;;;2.42;1.35;;;;;;;;;;5354209;26;20405;-71
2024/04/20 06:46:32;;;;;;;2.45;1.10;;;;;;;;;;5365346;26;20001;-71
2024/04/20 06:48:57;;;;;;;2.63;1.38;;;;;;;;;;5363911;26;20140;-72
2024/04/20 06:51:23;;;;;;;2.70;0.90;;;;;;;;;;5368174;26;20359;-72
2024/04/20 06:53:49;;;;;;;2.22;1.15;;;;;;;;;;5357326;26;20012;-72
2024/04/20 06:56:16;;;;;;;1.95;1.10;;;;;;;;;;5358407;26;20452;-73
2024/04/20 06:58:42;;;;;;;3.20;1.23;;;;;;;;;;5364048;26;19996;-72
2024/04/20 07:01:09;;;;;;;1.52;0.85;;;;;;;;;;5369924;26;20012;-73
2024/04/20 07:03:38;;;;;;;3.28;0.70;;;;;;;;;;5366148;26;20130;-70
2024/04/20 07:06:04;;;;;;;1.50;0.90;;;;;;;;;;5362599;26;20378;-70
2024/04/20 07:08:31;;;;;;;1.63;0.80;;;;;;;;;;5371647;26;20000;-70
2024/04/20 07:11:01;;;;;;;1.13;0.80;;;;;;;;;;5368473;26;20005;-70
2024/04/20 07:13:30;;;;;;;0.90;0.70;;;;;;;;;;5359857;26;20489;-70
2024/04/20 07:15:56;;;;;;;2.50;1.02;;;;;;;;;;5356037;26;20008;-70
2024/04/20 07:18:22;;;;;;;1.13;0.60;;;;;;;;;;5367286;26;20000;-70
2024/04/20 07:20:48;;;;;;;0.80;0.70;;;;;;;;;;5364255;26;20059;-70
2024/04/20 07:23:14;;;;;;;0.65;0.50;;;;;;;;;;5376252;26;20121;-67
2024/04/20 07:25:40;;;;;;;1.90;0.88;;;;;;;;;;5369736;26;20082;-67
2024/04/20 07:28:06;;;;;;;1.02;0.65;;;;;;;;;;5368575;26;20089;-67
2024/04/20 07:30:31;;;;;;;1.48;0.88;;;;;;;;;;5369986;26;20529;-67
2024/04/20 07:32:57;;;;;;;0.85;0.70;;;;;;;;;;5366695;26;20008;-67
2024/04/20 07:35:23;;;;;;;1.30;0.70;;;;;;;;;;5363306;26;20087;-67
2024/04/20 07:37:49;;;;;;;1.63;0.80;;;;;;;;;;5365270;26;20416;-67
2024/04/20 07:40:15;;;;;;;1.25;0.75;;;;;;;;;;5364913;26;20024;-67
2024/04/20 07:42:41;;;;;;;2.30;0.90;;;;;;;;;;5356816;26;20004;-68
2024/04/20 07:45:07;;;;;;;1.02;0.65;;;;;;;;;;5358823;26;20121;-67
2024/04/20 07:47:33;;;;;;;1.80;0.90;;;;;;;;;;5368290;26;20028;-68
2024/04/20 07:49:59;;;;;;;1.80;0.93;;;;;;;;;;5369292;26;20426;-68
2024/04/20 07:52:25;;;;;;;0.75;0.50;;;;;;;;;;5356331;26;20000;-68
2024/04/20 07:54:51;;;;;;;1.15;0.70;;;;;;;;;;5359719;26;20000;-68
2024/04/20 07:57:17;;;;;;;0.65;0.55;;;;;;;;;;5360593;26;20037;-67
2024/04/20 07:59:45;;;;;;;1.63;1.00;;;;;;;;;;5367022;26;20036;-68
2024/04/20 08:02:11;;;;;;;0.80;0.50;;;;;;;;;;5353577;26;19996;-68
2024/04/20 08:04:37;;;;;;;1.52;0.60;;;;;;;;;;5364528;26;20008;-68
2024/04/20 08:07:03;;;;;;;0.60;0.50;;;;;;;;;;5353349;26;20452;-68
2024/04/20 08:09:29;;;;;;;1.23;0.60;;;;;;;;;;5368879;26;20628;-68
2024/04/20 08:11:55;;;;;;;1.33;0.63;;;;;;;;;;5358125;26;20001;-67
2024/04/20 08:14:21;;;;;;;1.08;0.63;;;;;;;;;;5353147;26;20011;-68
2024/04/20 08:16:47;;;;;;;1.30;0.80;;;;;;;;;;5361344;26;20000;-67
2024/04/20 08:19:12;;;;;;;2.05;0.80;;;;;;;;;;5350006;26;20000;-67
2024/04/20 08:21:39;;;;;;;3.13;0.80;;;;;;;;;;5368935;26;20019;-67
2024/04/20 08:24:05;;;;;;;1.42;0.82;;;;;;;;;;5385170;26;20000;-67
2024/04/20 08:26:31;;;;;;;1.98;0.70;;;;;;;;;;5369042;26;20000;-67
2024/04/20 08:28:57;;;;;;;1.40;0.80;;;;;;;;;;5355578;26;20024;-68
2024/04/20 08:31:24;;;;;;;0.95;0.55;;;;;;;;;;5356520;26;20016;-68
2024/04/20 08:33:50;;;;;;;2.22;0.68;;;;;;;;;;5369788;26;20007;-68
2024/04/20 08:36:16;;;;;;;2.20;1.00;;;;;;;;;;5363120;26;20000;-68
2024/04/20 08:38:41;;;;;;;0.77;0.70;;;;;;;;;;5368594;26;20105;-68
2024/04/20 08:41:09;;;;;;;1.20;0.65;;;;;;;;;;5362799;26;20459;-68
2024/04/20 08:43:36;;;;;;;0.70;0.60;;;;;;;;;;5355936;26;20492;-68
2024/04/20 08:46:05;;;;;;;1.08;0.63;;;;;;;;;;5363100;26;20293;-68
2024/04/20 08:48:31;;;;;;;2.25;0.68;;;;;;;;;;5364371;26;20329;-68
2024/04/20 08:51:02;;;;;;;1.52;0.70;;;;;;;;;;5362944;26;20051;-68
2024/04/20 08:53:32;;;;;;;1.45;0.77;;;;;;;;;;5364356;26;19996;-68
2024/04/20 08:55:59;;;;;;;2.45;0.50;;;;;;;;;;5357001;26;20096;-68
2024/04/20 08:58:25;;;;;;;0.82;0.40;;;;;;;;;;5365101;26;20056;-68
2024/04/20 09:00:52;;;;;;;1.08;0.55;;;;;;;;;;5362777;26;20046;-68
2024/04/20 09:03:18;;;;;;;1.35;0.75;;;;;;;;;;5366243;26;20004;-68
2024/04/20 09:05:45;;;;;;;1.05;0.38;;;;;;;;;;5366983;26;20112;-69
2024/04/20 09:08:11;;;;;;;1.48;0.77;;;;;;;;;;5366606;26;20019;-69
2024/04/20 09:10:37;;;;;;;0.50;0.50;;;;;;;;;;5353248;26;20000;-68
2024/04/20 09:13:02;;;;;;;1.05;0.70;;;;;;;;;;5360724;26;20439;-68
2024/04/20 09:15:29;;;;;;;1.33;0.40;;;;;;;;;;5364282;26;20000;-68
2024/04/20 09:17:56;;;;;;;0.88;0.55;;;;;;;;;;5357237;26;20011;-68
2024/04/20 09:20:23;;;;;;;0.52;0.50;;;;;;;;;;5364338;26;20316;-68
2024/04/20 09:22:49;;;;;;;1.05;0.60;;;;;;;;;;5358439;26;20418;-68
2024/04/20 09:25:21;;;;;;;2.33;1.15;;;;;;;;;;5360696;26;20412;-68
2024/04/20 09:27:50;;;;;;;0.38;0.35;;;;;;;;;;5350330;26;20029;-68
2024/04/20 09:30:16;;;;;;;0.82;0.50;;;;;;;;;;5365357;26;20348;-68
2024/04/20 09:32:42;;;;;;;1.55;0.60;;;;;;;;;;5368367;26;20004;-68
2024/04/20 09:35:08;;;;;;;0.50;0.50;;;;;;;;;;5356036;26;20032;-68
2024/04/20 09:37:34;;;;;;;2.28;0.47;;;;;;;;;;5363379;26;20050;-68
2024/04/20 09:40:00;;;;;;;1.08;0.40;;;;;;;;;;5359107;26;20051;-68
2024/04/20 09:42:29;;;;;;;0.77;0.43;;;;;;;;;;5365962;26;20000;-68
2024/04/20 09:44:55;;;;;;;1.88;0.60;;;;;;;;;;5355367;26;20019;-68
2024/04/20 09:47:24;;;;;;;0.55;0.43;;;;;;;;;;5362257;26;20004;-68
2024/04/20 09:49:52;;;;;;;1.13;0.65;;;;;;;;;;5369927;26;20336;-67
2024/04/20 09:52:30;;;;;;;0.50;0.50;;;;;;;;;;5362992;26;20004;-67
2024/04/20 09:55:20;;;;;;;1.20;0.70;;;;;;;;;;5358299;26;21460;-67
2024/04/20 09:57:47;;;;;;;3.75;0.90;;;;;;;;;;5363077;26;20304;-70
2024/04/20 10:00:14;;;;;;;0.98;0.60;;;;;;;;;;5351570;26;20077;-70
2024/04/20 10:02:41;;;;;;;0.85;0.60;;;;;;;;;;5358124;26;20591;-70
2024/04/20 10:05:08;;;;;;;1.45;0.73;;;;;;;;;;5360897;26;20328;-70
2024/04/20 10:07:35;;;;;;;0.93;0.50;;;;;;;;;;5364369;26;20019;-71
2024/04/20 10:10:03;;;;;;;0.40;0.30;;;;;;;;;;5361902;26;20128;-71
2024/04/20 10:12:31;;;;;;;0.77;0.70;;;;;;;;;;5366542;26;20015;-77
2024/04/20 10:14:58;;;;;;;1.45;0.63;;;;;;;;;;5352469;26;20430;-67
2024/04/20 10:17:27;;;;;;;1.88;0.50;;;;;;;;;;5362631;26;20044;-67
2024/04/20 10:19:54;;;;;;;0.43;0.43;;;;;;;;;;5365903;26;20010;-69
2024/04/20 10:22:20;;;;;;;1.45;0.80;;;;;;;;;;5369507;26;20145;-68
2024/04/20 10:24:52;;;;;;;1.10;0.77;;;;;;;;;;5380038;26;20420;-69
2024/04/20 10:27:39;;;;;;;1.05;0.60;;;;;;;;;;5370489;26;20038;-68
2024/04/20 10:30:21;;;;;;;0.80;0.60;;;;;;;;;;5364242;26;20011;-69
2024/04/20 10:32:50;;;;;;;0.85;0.40;;;;;;;;;;5366642;26;20011;-68
2024/04/20 10:35:19;;;;;;;0.77;0.40;;;;;;;;;;5369809;26;20344;-69
2024/04/20 10:37:45;;;;;;;1.05;0.50;;;;;;;;;;5363324;26;20048;-68
2024/04/20 10:40:13;;;;;;;0.70;0.60;;;;;;;;;;5358249;26;20321;-68
2024/04/20 10:42:40;;;;;;;0.68;0.40;;;;;;;;;;5366187;26;19996;-68
2024/04/20 10:45:06;;;;;;;1.95;0.70;;;;;;;;;;5366776;26;20052;-68
2024/04/20 10:47:33;;;;;;;1.10;0.40;;;;;;;;;;5361920;26;20008;-68
2024/04/20 10:49:59;;;;;;;1.10;0.73;;;;;;;;;;5370472;26;20004;-69
2024/04/20 10:52:26;;;;;;;0.80;0.65;;;;;;;;;;5358301;26;20316;-68
2024/04/20 10:54:52;;;;;;;0.70;0.50;;;;;;;;;;5362300;26;20004;-68
2024/04/20 10:57:18;;;;;;;0.52;0.47;;;;;;;;;;5363401;26;20054;-68
2024/04/20 10:59:45;;;;;;;2.42;0.77;;;;;;;;;;5363718;26;20274;-68
2024/04/20 11:02:14;;;;;;;0.85;0.65;;;;;;;;;;5367596;26;20023;-68
2024/04/20 11:04:41;;;;;;;0.52;0.40;;;;;;;;;;5361820;26;20032;-68
2024/04/20 11:07:06;;;;;;;0.73;0.47;;;;;;;;;;5369279;26;20045;-68
2024/04/20 11:09:33;;;;;;;1.60;0.70;;;;;;;;;;5361991;26;20086;-68
2024/04/20 11:12:03;;;;;;;0.68;0.40;;;;;;;;;;5368133;26;20034;-68
2024/04/20 11:14:30;;;;;;;0.83;0.50;;;;;;;;;;5366520;26;20000;-69
2024/04/20 11:16:59;;;;;;;0.65;0.55;;;;;;;;;;5366254;26;20227;-69
2024/04/20 11:19:25;;;;;;;1.40;0.60;;;;;;;;;;5365374;26;20082;-68
2024/04/20 11:21:51;;;;;;;0.25;0.25;;;;;;;;;;5355158;26;20065;-68
2024/04/20 11:24:17;;;;;;;1.00;0.50;;;;;;;;;;5371561;26;20000;-68
2024/04/20 11:26:43;;;;;;;0.22;0.22;;;;;;;;;;5366875;26;20013;-68
2024/04/20 11:29:09;;;;;;;0.73;0.45;;;;;;;;;;5355293;26;20054;-68
2024/04/20 11:31:35;;;;;;;0.50;0.35;;;;;;;;;;5370116;26;19992;-68
2024/04/20 11:34:01;;;;;;;0.85;0.50;;;;;;;;;;5362915;26;20016;-69
2024/04/20 11:36:30;;;;;;;0.47;0.40;;;;;;;;;;5361819;26;20008;-68
2024/04/20 11:39:05;;;;;;;0.30;0.30;;;;;;;;;;5360573;26;19996;-68
2024/04/20 11:41:32;;;;;;;0.30;0.30;;;;;;;;;;5358363;26;20397;-68
2024/04/20 11:44:04;;;;;;;0.98;0.47;;;;;;;;;;5368342;26;20015;-68
2024/04/20 11:46:30;;;;;;;0.75;0.50;;;;;;;;;;5364963;26;20143;-68
2024/04/20 11:48:56;;;;;;;1.73;0.52;;;;;;;;;;5354268;26;20305;-68
2024/04/20 11:54:19;;;;;;;0.50;0.30;;;;;;;;;;5361849;26;20143;-68
2024/04/20 11:56:44;;;;;;;2.22;0.43;;;;;;;;;;5353362;26;20018;-68
2024/04/20 11:59:14;;;;;;;0.43;0.28;;;;;;;;;;5361265;26;20016;-69
2024/04/20 12:01:41;;;;;;;2.65;0.60;;;;;;;;;;5353728;26;20086;-68
2024/04/20 12:04:10;;;;;;;0.45;0.40;;;;;;;;;;5361583;26;20499;-68
2024/04/20 12:06:36;;;;;;;0.45;0.45;;;;;;;;;;5357509;26;20081;-67
2024/04/20 12:09:02;;;;;;;0.82;0.63;;;;;;;;;;5359368;26;20716;-67
2024/04/20 12:11:28;;;;;;;0.68;0.50;;;;;;;;;;5357436;26;20016;-68
2024/04/20 12:13:54;;;;;;;1.67;0.50;;;;;;;;;;5360841;26;20012;-68
2024/04/20 12:16:20;;;;;;;0.75;0.40;;;;;;;;;;5366979;26;20036;-68
2024/04/20 12:18:46;;;;;;;1.02;0.47;;;;;;;;;;5357313;26;20091;-68
2024/04/20 12:21:17;;;;;;;0.95;0.38;;;;;;;;;;5361408;26;20071;-68
2024/04/20 12:23:43;;;;;;;0.82;0.25;;;;;;;;;;5366176;26;20406;-68
2024/04/20 12:26:09;;;;;;;1.33;0.70;;;;;;;;;;5363372;26;20031;-68
2024/04/20 12:28:36;;;;;;;0.93;0.47;;;;;;;;;;5365217;26;20020;-68
2024/04/20 12:31:04;;;;;;;0.47;0.40;;;;;;;;;;5356270;26;20415;-69
2024/04/20 12:33:30;;;;;;;0.30;0.30;;;;;;;;;;5353205;26;20040;-68
2024/04/20 12:35:56;;;;;;;0.25;0.25;;;;;;;;;;5357052;26;20107;-68
2024/04/20 12:38:26;;;;;;;1.00;0.38;;;;;;;;;;5362458;26;20135;-68
2024/04/20 12:40:52;;;;;;;0.50;0.30;;;;;;;;;;5363357;26;20019;-67
2024/04/20 12:43:18;;;;;;;0.73;0.40;;;;;;;;;;5368411;26;20024;-67
2024/04/20 12:45:44;;;;;;;0.47;0.25;;;;;;;;;;5362406;26;20012;-67
2024/04/20 12:48:11;;;;;;;0.73;0.38;;;;;;;;;;5365051;26;20073;-67
2024/04/20 12:50:37;;;;;;;0.73;0.28;;;;;;;;;;5359439;26;20318;-67
2024/04/20 12:53:03;;;;;;;0.40;0.40;;;;;;;;;;5367497;26;20289;-68
2024/04/20 12:55:29;;;;;;;0.40;0.30;;;;;;;;;;5362584;26;19996;-68
2024/04/20 12:57:55;;;;;;;0.52;0.25;;;;;;;;;;5365985;26;20059;-68
2024/04/20 13:00:20;;;;;;;0.40;0.20;;;;;;;;;;5369331;26;20004;-68
2024/04/20 13:02:46;;;;;;;0.30;0.30;;;;;;;;;;5361390;26;20008;-67
2024/04/20 13:05:12;;;;;;;0.75;0.47;;;;;;;;;;5366755;26;20050;-67
2024/04/20 13:07:39;;;;;;;0.80;0.40;;;;;;;;;;5349204;26;20483;-67
2024/04/20 13:10:05;;;;;;;0.68;0.50;;;;;;;;;;5367006;26;20405;-67
2024/04/20 13:12:31;;;;;;;1.35;0.57;;;;;;;;;;5358798;26;20357;-68
2024/04/20 13:14:57;;;;;;;0.90;0.40;;;;;;;;;;5359105;26;20146;-67
2024/04/20 13:17:23;;;;;;;1.10;0.70;;;;;;;;;;5366305;26;20096;-67
2024/04/20 13:19:55;;;;;;;2.50;0.47;;;;;;;;;;5370452;26;20004;-67
2024/04/20 13:22:21;;;;;;;1.13;0.60;;;;;;;;;;5364465;26;20134;-67
2024/04/20 13:24:47;;;;;;;1.23;0.60;;;;;;;;;;5363750;26;20408;-67
2024/04/20 13:27:13;;;;;;;1.15;0.50;;;;;;;;;;5367293;26;20035;-67
2024/04/20 13:29:39;;;;;;;0.65;0.50;;;;;;;;;;5361708;26;20048;-68
2024/04/20 13:32:05;;;;;;;0.63;0.50;;;;;;;;;;5353693;26;20003;-68
2024/04/20 13:34:33;;;;;;;1.02;0.60;;;;;;;;;;5362834;26;20081;-68
2024/04/20 13:36:59;;;;;;;0.50;0.50;;;;;;;;;;5361586;26;20012;-70
2024/04/20 13:39:25;;;;;;;0.60;0.50;;;;;;;;;;5365764;26;20663;-70
2024/04/20 13:41:51;;;;;;;0.30;0.30;;;;;;;;;;5351701;26;20008;-69
2024/04/20 13:44:17;;;;;;;1.23;0.85;;;;;;;;;;5358046;26;20090;-69
2024/04/20 13:46:42;;;;;;;1.70;0.70;;;;;;;;;;5363304;26;20000;-70
2024/04/20 13:49:08;;;;;;;1.08;0.47;;;;;;;;;;5368430;26;20157;-70
2024/04/20 13:51:34;;;;;;;2.05;1.23;;;;;;;;;;5368685;26;19996;-70
2024/04/20 13:54:00;;;;;;;2.85;1.70;;;;;;;;;;5348842;26;20008;-70
2024/04/20 13:56:26;;;;;;;3.05;1.60;;;;;;;;;;5362003;26;20015;-66
2024/04/20 13:58:59;;;;;;;7.25;5.20;;;;;;;;;;5351649;26;20004;-66
2024/04/20 14:01:25;;;;;;;1.20;0.77;;;;;;;;;;5352813;26;19996;-67
2024/04/20 14:03:51;;;;;;;1.35;0.60;;;;;;;;;;5362276;26;20011;-68
2024/04/20 14:06:18;;;;;;;1.65;0.70;;;;;;;;;;5357492;26;20082;-65
2024/04/20 14:08:44;;;;;;;0.77;0.52;;;;;;;;;;5365026;26;20015;-66
2024/04/20 14:11:10;;;;;;;0.75;0.60;;;;;;;;;;5364314;26;20078;-66
2024/04/20 14:13:36;;;;;;;0.85;0.50;;;;;;;;;;5356532;26;20016;-66
2024/04/20 14:16:02;;;;;;;1.05;0.50;;;;;;;;;;5357283;26;20038;-68
2024/04/20 14:18:28;;;;;;;0.60;0.52;;;;;;;;;;5348648;26;20004;-67
2024/04/20 14:20:54;;;;;;;0.40;0.40;;;;;;;;;;5366055;26;20226;-68
2024/04/20 14:23:20;;;;;;;0.85;0.52;;;;;;;;;;5359822;26;20012;-67
2024/04/20 14:25:46;;;;;;;1.20;0.60;;;;;;;;;;5366249;26;20130;-68
2024/04/20 14:28:12;;;;;;;1.23;0.40;;;;;;;;;;5363264;26;20970;-67
2024/04/20 14:30:38;;;;;;;0.80;0.43;;;;;;;;;;5366229;26;20012;-68
2024/04/20 14:33:04;;;;;;;1.10;0.55;;;;;;;;;;5363043;26;20000;-67
2024/04/20 14:35:34;;;;;;;1.77;0.80;;;;;;;;;;5350111;26;20074;-69
2024/04/20 14:38:00;;;;;;;0.68;0.60;;;;;;;;;;5350828;26;20060;-69
2024/04/20 14:40:26;;;;;;;0.50;0.50;;;;;;;;;;5368171;26;20416;-69
2024/04/20 14:42:52;;;;;;;0.55;0.50;;;;;;;;;;5359511;26;20062;-69